Aérodrome :
LOGIN :

S'inscrire | Disclaimer

   EN    FR    IT 

 










Légende :    VFR   VFR Marginal   IFR   IFR Intensif   IFR Très Intensif
Visi : 
Plafond : 
>= 8 km
>= 3000ft
5 à 8 km
1000 à 3000 ft
1500m à 5 km
500 à 1000 ft
800 à 1500m
200 à 500 ft
< 800m
< 200 ft
Symboles :   Orages  Brouillard  Fortes neiges  Fortes précipitations  Vent > 20 kt
SIGMETs :   Divers  Orages  Givrage  Turbulence  Onde Orograph.  Cendres Volcan.






- Altitude de l'aérodrome : 177 ft
- Code IATA : BRI


LIBD - Palese Macchie Bari

DERNIER METAR :
  • 300850Z 36004KT 290V070 CAVOK 14/10 Q1012

METARs EXPIRÉS :
  • 300820Z VRB03KT CAVOK 14/09 Q1012
  • 300750Z 32003KT 260V030 CAVOK 13/08 Q1012
  • 300720Z 29004KT 260V330 CAVOK 12/08 Q1012
  • 300650Z 30003KT 260V340 CAVOK 11/08 Q1012
  • 300620Z 29004KT CAVOK 10/07 Q1012
  • 300550Z 25004KT CAVOK 08/06 Q1012

TAF TAF LIBD
Valide du 30 à 00h jusqu'au 31 à 00h UTC


292300Z 3000/3024 28006KT 8000 NSC
BECMG 3006/3008 04010KT



MET'MAP, la Météo Aéronautique d'un coup d'oeil ! - Copyright ORBIFLY Décembre 2007 - Disclaimer

ORBIFLY MET'MAP TEAM :

Programmation & Développement : Alexandra Zaïnal
Sur une idée originale de : Baudouin d'Aumeries
Assistance à la programmation : Marc-Olivier Méhu
Soutien technique & logistique : Manuel Goepfert

Contact : metmap@orbifly.com




SOURCES & CREDITS :

   NOAA